createdAt,value
2018-05-29T00:01:18.180Z,13.93
2018-05-29T00:03:45.175Z,13.30
2018-05-29T00:06:12.057Z,15.00
2018-05-29T00:08:38.981Z,14.70
2018-05-29T00:11:05.924Z,14.93
2018-05-29T00:13:32.748Z,17.07
2018-05-29T00:15:59.633Z,15.93
2018-05-29T00:18:26.442Z,16.37
2018-05-29T00:20:53.180Z,15.90
2018-05-29T00:23:19.908Z,16.60
2018-05-29T00:25:46.644Z,14.80
2018-05-29T00:28:13.384Z,14.77
2018-05-29T00:30:40.112Z,14.70
2018-05-29T00:33:06.844Z,15.27
2018-05-29T00:35:33.580Z,14.90
2018-05-29T00:38:00.305Z,16.67
2018-05-29T00:40:27.059Z,17.33
2018-05-29T00:42:53.792Z,16.53
2018-05-29T00:45:20.507Z,16.27
2018-05-29T00:47:47.244Z,16.20
2018-05-29T00:50:13.963Z,17.87
2018-05-29T00:52:40.690Z,16.60
2018-05-29T00:55:13.413Z,16.53
2018-05-29T00:57:40.155Z,16.70
2018-05-29T01:00:06.881Z,17.30
2018-05-29T01:02:33.614Z,16.73
2018-05-29T01:05:00.327Z,18.10
2018-05-29T01:07:27.047Z,17.50
2018-05-29T01:09:53.788Z,18.77
2018-05-29T01:12:20.521Z,17.77
2018-05-29T01:14:47.242Z,17.97
2018-05-29T01:17:13.981Z,17.80
2018-05-29T01:19:40.704Z,18.53
2018-05-29T01:22:07.428Z,17.10
2018-05-29T01:24:34.300Z,17.97
2018-05-29T01:27:01.020Z,18.47
2018-05-29T01:29:27.745Z,18.10
2018-05-29T01:31:54.480Z,18.10
2018-05-29T01:34:21.205Z,16.40
2018-05-29T01:36:47.935Z,16.63
2018-05-29T01:39:14.672Z,16.07
2018-05-29T01:41:41.404Z,16.03
2018-05-29T01:44:08.128Z,16.73
2018-05-29T01:46:34.864Z,16.00
2018-05-29T01:49:01.588Z,18.03
2018-05-29T01:51:28.315Z,16.43
2018-05-29T01:53:55.044Z,16.90
2018-05-29T01:56:21.763Z,16.73
2018-05-29T01:58:48.492Z,15.43
2018-05-29T02:01:15.237Z,15.17
2018-05-29T02:03:41.973Z,17.77
2018-05-29T02:06:08.695Z,16.93
2018-05-29T02:08:35.435Z,17.67
2018-05-29T02:11:02.167Z,19.10
2018-05-29T02:13:28.886Z,16.10
2018-05-29T02:15:55.624Z,18.20
2018-05-29T02:18:22.353Z,17.80
2018-05-29T02:20:49.103Z,18.27
2018-05-29T02:23:15.844Z,19.87
2018-05-29T02:25:42.568Z,19.80
2018-05-29T02:28:09.302Z,18.67
2018-05-29T02:30:36.028Z,19.03
2018-05-29T02:33:02.756Z,20.53
2018-05-29T02:35:29.488Z,19.23
2018-05-29T02:37:56.229Z,20.80
2018-05-29T02:40:22.958Z,20.20
2018-05-29T02:42:49.716Z,19.90
2018-05-29T02:45:16.451Z,21.13
2018-05-29T02:47:43.179Z,20.60
2018-05-29T02:50:09.912Z,22.50
2018-05-29T02:52:36.644Z,26.23
2018-05-29T02:55:03.369Z,22.27
2018-05-29T02:57:30.095Z,22.03
2018-05-29T02:59:56.827Z,22.00
2018-05-29T03:02:23.547Z,22.00
2018-05-29T03:04:51.133Z,23.50
2018-05-29T03:07:17.872Z,24.27
2018-05-29T03:09:44.601Z,30.20
2018-05-29T03:12:11.321Z,24.90
2018-05-29T03:14:38.051Z,22.67
2018-05-29T03:17:04.775Z,22.27
2018-05-29T03:19:31.501Z,23.40
2018-05-29T03:21:58.235Z,23.43
2018-05-29T03:24:24.954Z,24.50
2018-05-29T03:26:51.692Z,25.40
2018-05-29T03:29:18.425Z,24.20
2018-05-29T03:31:45.201Z,24.40
2018-05-29T03:34:11.882Z,26.80
2018-05-29T03:36:38.689Z,24.33
2018-05-29T03:39:05.406Z,24.80
2018-05-29T03:41:32.128Z,26.50
2018-05-29T03:43:58.864Z,25.90
2018-05-29T03:46:25.589Z,25.13
2018-05-29T03:48:52.312Z,30.83
2018-05-29T03:51:19.062Z,29.17
2018-05-29T03:53:45.777Z,25.97
2018-05-29T03:56:12.498Z,26.00
2018-05-29T03:58:39.231Z,24.73
2018-05-29T04:01:05.958Z,25.90
2018-05-29T04:03:32.719Z,24.70
2018-05-29T04:05:59.459Z,26.47
2018-05-29T04:08:26.289Z,26.93
2018-05-29T04:10:53.039Z,26.77
2018-05-29T04:13:19.772Z,26.20
2018-05-29T04:15:46.609Z,27.20
2018-05-29T04:18:13.331Z,26.70
2018-05-29T04:20:40.066Z,25.93
2018-05-29T04:23:06.824Z,24.50
2018-05-29T04:25:33.551Z,26.87
2018-05-29T04:28:00.321Z,27.10
2018-05-29T04:30:27.157Z,24.80
2018-05-29T04:32:53.871Z,26.70
2018-05-29T04:35:20.617Z,25.90
2018-05-29T04:37:47.357Z,24.10
2018-05-29T04:40:14.187Z,22.63
2018-05-29T04:42:40.933Z,25.33
2018-05-29T04:45:07.698Z,23.53
2018-05-29T04:47:34.425Z,23.90
2018-05-29T04:50:01.252Z,24.40
2018-05-29T04:52:27.997Z,23.20
2018-05-29T04:54:54.748Z,22.27
2018-05-29T04:57:21.576Z,22.70
2018-05-29T04:59:48.329Z,22.13
2018-05-29T05:02:15.051Z,22.97
2018-05-29T05:04:41.797Z,22.93
2018-05-29T05:07:08.552Z,22.20
2018-05-29T05:09:35.276Z,21.07
2018-05-29T05:12:02.012Z,21.80
2018-05-29T05:14:28.743Z,22.97
2018-05-29T05:16:55.500Z,21.47
2018-05-29T05:19:22.239Z,21.50
2018-05-29T05:21:48.968Z,21.60
2018-05-29T05:24:15.695Z,22.10
2018-05-29T05:26:42.432Z,20.83
2018-05-29T05:29:09.151Z,20.63
2018-05-29T05:31:35.875Z,20.50
2018-05-29T05:34:02.611Z,21.70
2018-05-29T05:36:29.331Z,21.03
2018-05-29T05:38:56.051Z,21.37
2018-05-29T05:41:22.793Z,20.97
2018-05-29T05:43:49.517Z,21.90
2018-05-29T05:46:16.243Z,19.83
2018-05-29T05:48:42.978Z,20.90
2018-05-29T05:51:09.701Z,20.43
2018-05-29T05:53:36.508Z,20.07
2018-05-29T05:56:03.244Z,20.50
2018-05-29T05:58:30.038Z,20.23
2018-05-29T06:00:56.724Z,21.13
2018-05-29T06:03:23.472Z,20.23
2018-05-29T06:05:50.196Z,21.37
2018-05-29T06:08:16.912Z,21.60
2018-05-29T06:10:43.650Z,19.87
2018-05-29T06:13:10.379Z,19.40
2018-05-29T06:15:37.127Z,20.23
2018-05-29T06:18:03.906Z,21.17
2018-05-29T06:20:30.651Z,20.57
2018-05-29T06:22:57.419Z,20.50
2018-05-29T06:25:24.164Z,20.27
2018-05-29T06:27:50.893Z,21.37
2018-05-29T06:30:17.628Z,20.73
2018-05-29T06:32:44.460Z,20.70
2018-05-29T06:35:11.185Z,20.77
2018-05-29T06:37:37.906Z,19.37
2018-05-29T06:40:04.693Z,18.87
2018-05-29T06:42:31.412Z,19.13
2018-05-29T06:44:58.216Z,18.90
2018-05-29T06:47:24.902Z,19.53
2018-05-29T06:49:51.617Z,19.07
2018-05-29T06:52:18.339Z,19.03
2018-05-29T06:54:45.072Z,20.53
2018-05-29T06:57:11.805Z,19.40
2018-05-29T06:59:38.532Z,19.20
2018-05-29T07:02:05.332Z,18.90
2018-05-29T07:04:32.068Z,20.13
2018-05-29T07:06:58.831Z,17.77
2018-05-29T07:09:29.550Z,18.80
2018-05-29T07:11:56.270Z,20.20
2018-05-29T07:14:23.028Z,19.80
2018-05-29T07:16:49.764Z,19.47
2018-05-29T07:19:16.530Z,19.40
2018-05-29T07:21:43.254Z,19.73
2018-05-29T07:24:09.987Z,19.13
2018-05-29T07:26:36.785Z,18.60
2018-05-29T07:29:03.537Z,18.27
2018-05-29T07:31:30.277Z,18.23
2018-05-29T07:33:56.999Z,18.63
2018-05-29T07:36:23.727Z,18.10
2018-05-29T07:38:50.562Z,18.00
2018-05-29T07:41:17.367Z,19.37
2018-05-29T07:43:44.086Z,18.70
2018-05-29T07:46:10.833Z,18.90
2018-05-29T07:48:37.560Z,18.60
2018-05-29T07:51:04.283Z,18.70
2018-05-29T07:53:31.076Z,18.53
2018-05-29T07:55:57.800Z,17.20
2018-05-29T07:58:24.524Z,17.40
2018-05-29T08:00:51.264Z,20.87
2018-05-29T08:03:17.996Z,19.37
2018-05-29T08:05:44.724Z,18.90
2018-05-29T08:08:11.468Z,18.50
2018-05-29T08:10:38.245Z,17.83
2018-05-29T08:13:05.005Z,17.20
2018-05-29T08:15:31.761Z,18.10
2018-05-29T08:17:58.591Z,17.90
2018-05-29T08:20:25.319Z,16.50
2018-05-29T08:22:52.065Z,17.53
2018-05-29T08:25:18.791Z,17.87
2018-05-29T08:27:45.515Z,16.30
2018-05-29T08:30:12.261Z,17.07
2018-05-29T08:32:38.987Z,17.03
2018-05-29T08:35:05.711Z,17.17
2018-05-29T08:37:32.453Z,16.10
2018-05-29T08:39:59.180Z,16.47
2018-05-29T08:42:25.909Z,15.67
2018-05-29T08:44:52.648Z,15.30
2018-05-29T08:47:19.376Z,15.70
2018-05-29T08:49:46.113Z,14.87
2018-05-29T08:52:12.855Z,15.67
2018-05-29T08:54:39.575Z,15.80
2018-05-29T08:57:06.308Z,15.27
2018-05-29T08:59:33.060Z,15.27
2018-05-29T09:01:59.792Z,14.13
2018-05-29T09:04:26.520Z,14.50
2018-05-29T09:06:53.264Z,18.13
2018-05-29T09:09:19.990Z,18.97
2018-05-29T09:11:46.733Z,13.37
2018-05-29T09:14:13.472Z,14.40
2018-05-29T09:16:40.192Z,13.00
2018-05-29T09:19:06.926Z,12.47
2018-05-29T09:21:33.740Z,13.00
2018-05-29T09:24:00.478Z,12.73
2018-05-29T09:26:27.208Z,12.10
2018-05-29T09:28:53.947Z,12.67
2018-05-29T09:31:20.712Z,11.97
2018-05-29T09:33:47.453Z,11.90
2018-05-29T09:36:14.186Z,11.67
2018-05-29T09:38:40.929Z,11.70
2018-05-29T09:41:07.647Z,9.43
2018-05-29T09:43:34.387Z,10.27
2018-05-29T09:46:01.180Z,9.70
2018-05-29T09:48:27.859Z,10.07
2018-05-29T09:50:54.594Z,9.00
2018-05-29T09:53:21.322Z,9.37
2018-05-29T09:55:48.047Z,10.50
2018-05-29T09:58:14.784Z,11.27
2018-05-29T10:00:41.511Z,11.33
2018-05-29T10:03:08.235Z,9.67
2018-05-29T10:05:34.972Z,8.43
2018-05-29T10:08:02.124Z,10.67
2018-05-29T10:10:28.852Z,10.17
2018-05-29T10:12:55.656Z,9.33
2018-05-29T10:15:22.380Z,8.90
2018-05-29T10:17:49.104Z,8.80
2018-05-29T10:20:15.838Z,32.00
2018-05-29T10:22:42.560Z,9.33
2018-05-29T10:25:09.288Z,8.90
2018-05-29T10:27:36.022Z,8.07
2018-05-29T10:30:02.746Z,7.60
2018-05-29T10:32:29.470Z,7.27
2018-05-29T10:34:56.202Z,8.70
2018-05-29T10:37:22.916Z,7.60
2018-05-29T10:39:49.643Z,7.20
2018-05-29T10:42:16.382Z,7.10
2018-05-29T10:44:43.095Z,7.60
2018-05-29T10:47:09.817Z,7.37
2018-05-29T10:49:36.581Z,7.10
2018-05-29T10:52:03.774Z,8.00
2018-05-29T10:54:30.497Z,7.60
2018-05-29T10:56:57.244Z,7.20
2018-05-29T10:59:23.969Z,7.20
2018-05-29T11:01:50.705Z,7.70
2018-05-29T11:04:17.431Z,7.23
2018-05-29T11:06:44.148Z,7.77
2018-05-29T11:09:10.870Z,13.47
2018-05-29T11:11:37.608Z,5.80
2018-05-29T11:14:04.340Z,5.17
2018-05-29T11:16:31.062Z,5.20
2018-05-29T11:18:57.802Z,5.90
2018-05-29T11:21:24.517Z,5.17
2018-05-29T11:23:51.244Z,5.20
2018-05-29T11:26:17.984Z,4.97
2018-05-29T11:28:44.701Z,5.40
2018-05-29T11:31:11.471Z,5.60
2018-05-29T11:33:38.166Z,5.97
2018-05-29T11:36:04.888Z,5.97
2018-05-29T11:38:31.613Z,6.80
2018-05-29T11:40:58.346Z,5.73
2018-05-29T11:43:25.078Z,5.93
2018-05-29T11:45:51.795Z,5.43
2018-05-29T11:48:18.527Z,6.20
2018-05-29T11:50:45.249Z,6.80
2018-05-29T11:53:11.971Z,6.50
2018-05-29T11:55:38.699Z,6.00
2018-05-29T11:58:05.407Z,5.97
2018-05-29T12:00:32.127Z,6.10
2018-05-29T12:02:58.862Z,5.80
2018-05-29T12:05:25.580Z,5.13
2018-05-29T12:07:52.298Z,5.70
2018-05-29T12:10:19.038Z,6.20
2018-05-29T12:12:45.753Z,6.63
2018-05-29T12:15:12.472Z,6.77
2018-05-29T12:17:39.194Z,7.17
2018-05-29T12:20:05.906Z,7.13
2018-05-29T12:22:32.628Z,7.83
2018-05-29T12:24:59.360Z,7.37
2018-05-29T12:27:26.072Z,6.30
2018-05-29T12:29:52.796Z,7.40
2018-05-29T12:32:19.530Z,6.37
2018-05-29T12:34:46.251Z,6.67
2018-05-29T12:37:13.282Z,6.47
2018-05-29T12:39:40.004Z,6.53
2018-05-29T12:42:06.720Z,6.00
2018-05-29T12:44:33.438Z,6.78
2018-05-29T12:47:00.163Z,6.68
2018-05-29T12:49:26.881Z,6.57
2018-05-29T12:51:53.609Z,5.60
2018-05-29T12:54:20.349Z,5.85
2018-05-29T12:56:47.068Z,5.35
2018-05-29T12:59:13.804Z,5.55
2018-05-29T13:01:40.519Z,5.30
2018-05-29T13:04:07.239Z,5.97
2018-05-29T13:06:33.951Z,6.22
2018-05-29T13:09:00.683Z,6.10
2018-05-29T13:11:27.405Z,6.18
2018-05-29T13:13:54.125Z,6.00
2018-05-29T13:16:20.853Z,7.18
2018-05-29T13:18:47.567Z,6.68
2018-05-29T13:21:14.292Z,6.30
2018-05-29T13:23:41.033Z,6.80
2018-05-29T13:26:07.753Z,7.03
2018-05-29T13:28:34.468Z,6.60
2018-05-29T13:31:01.204Z,6.75
2018-05-29T13:33:27.920Z,6.95
2018-05-29T13:35:54.640Z,6.45
2018-05-29T13:38:21.396Z,6.75
2018-05-29T13:40:48.112Z,6.10
2018-05-29T13:43:14.827Z,6.40
2018-05-29T13:45:41.555Z,6.55
2018-05-29T13:48:08.271Z,6.47
2018-05-29T13:50:34.983Z,6.68
2018-05-29T13:53:01.707Z,6.80
2018-05-29T13:55:28.428Z,7.05
2018-05-29T13:57:55.139Z,6.47
2018-05-29T14:00:21.865Z,6.18
2018-05-29T14:02:48.592Z,6.22
2018-05-29T14:05:15.317Z,6.55
2018-05-29T14:07:42.052Z,6.35
2018-05-29T14:10:08.759Z,5.85
2018-05-29T14:12:35.471Z,5.97
2018-05-29T14:15:02.203Z,6.82
2018-05-29T14:17:28.923Z,6.40
2018-05-29T14:19:55.634Z,6.07
2018-05-29T14:22:22.358Z,6.72
2018-05-29T14:24:49.077Z,6.60
2018-05-29T14:27:15.811Z,7.12
2018-05-29T14:29:42.559Z,6.32
2018-05-29T14:32:09.267Z,5.80
2018-05-29T14:34:36.053Z,6.32
2018-05-29T14:37:02.780Z,5.70
2018-05-29T14:39:29.496Z,5.72
2018-05-29T14:41:56.256Z,6.05
2018-05-29T14:44:22.959Z,6.12
2018-05-29T14:46:49.676Z,6.00
2018-05-29T14:49:16.388Z,6.25
2018-05-29T14:51:43.120Z,6.20
2018-05-29T14:54:09.843Z,5.50
2018-05-29T14:56:36.576Z,5.55
2018-05-29T14:59:03.315Z,5.30
2018-05-29T15:01:30.055Z,5.32
2018-05-29T15:03:56.789Z,5.55
2018-05-29T15:06:23.528Z,5.57
2018-05-29T15:08:50.286Z,5.18
2018-05-29T15:11:17.012Z,5.20
2018-05-29T15:13:43.800Z,5.45
2018-05-29T15:16:10.518Z,5.45
2018-05-29T15:18:37.240Z,5.68
2018-05-29T15:21:03.972Z,5.43
2018-05-29T15:23:30.690Z,5.40
2018-05-29T15:25:57.419Z,4.55
2018-05-29T15:28:24.152Z,5.37
2018-05-29T15:30:50.877Z,5.00
2018-05-29T15:33:17.661Z,10.63
2018-05-29T15:35:44.360Z,5.55
2018-05-29T15:38:11.084Z,4.22
2018-05-29T15:40:37.852Z,5.20
2018-05-29T15:43:04.560Z,8.80
2018-05-29T15:45:31.284Z,5.45
2018-05-29T15:47:58.008Z,5.20
2018-05-29T15:50:24.744Z,4.53
2018-05-29T15:52:51.488Z,4.78
2018-05-29T15:55:18.222Z,4.78
2018-05-29T15:57:45.129Z,4.62
2018-05-29T16:00:11.846Z,4.20
2018-05-29T16:02:38.563Z,4.80
2018-05-29T16:05:05.310Z,4.78
2018-05-29T16:07:32.048Z,4.70
2018-05-29T16:09:58.773Z,4.93
2018-05-29T16:12:25.517Z,4.55
2018-05-29T16:14:52.235Z,4.65
2018-05-29T16:17:18.973Z,5.57
2018-05-29T16:19:45.704Z,5.32
2018-05-29T16:22:12.423Z,4.50
2018-05-29T16:24:39.151Z,27.67
2018-05-29T16:27:05.885Z,5.43
2018-05-29T16:29:32.633Z,5.00
2018-05-29T16:31:59.352Z,4.37
2018-05-29T16:34:26.102Z,4.40
2018-05-29T16:36:52.850Z,5.07
2018-05-29T16:39:19.613Z,5.10
2018-05-29T16:41:46.358Z,5.20
2018-05-29T16:44:13.079Z,4.83
2018-05-29T16:46:39.816Z,5.37
2018-05-29T16:49:06.607Z,5.77
2018-05-29T16:51:33.392Z,5.00
2018-05-29T16:54:00.156Z,4.33
2018-05-29T16:56:26.904Z,4.70
2018-05-29T16:58:53.628Z,5.00
2018-05-29T17:01:20.340Z,5.47
2018-05-29T17:03:47.073Z,5.20
2018-05-29T17:06:13.792Z,5.20
2018-05-29T17:08:40.519Z,4.60
2018-05-29T17:11:07.261Z,5.40
2018-05-29T17:13:33.988Z,5.07
2018-05-29T17:16:00.707Z,5.20
2018-05-29T17:18:27.444Z,4.50
2018-05-29T17:20:54.166Z,5.20
2018-05-29T17:23:20.919Z,5.23
2018-05-29T17:25:47.753Z,5.27
2018-05-29T17:28:14.481Z,4.60
2018-05-29T17:30:41.215Z,5.23
2018-05-29T17:33:07.960Z,5.03
2018-05-29T17:35:34.790Z,4.83
2018-05-29T17:38:01.479Z,5.70
2018-05-29T17:40:28.209Z,5.27
2018-05-29T17:42:54.924Z,5.27
2018-05-29T17:45:21.646Z,6.37
2018-05-29T17:47:48.388Z,36.70
2018-05-29T17:50:15.105Z,5.53
2018-05-29T17:52:41.856Z,5.20
2018-05-29T17:55:08.585Z,5.10
2018-05-29T17:57:35.301Z,5.90
2018-05-29T18:00:02.038Z,5.20
2018-05-29T18:02:28.776Z,4.50
2018-05-29T18:04:55.496Z,4.80
2018-05-29T18:07:22.258Z,5.40
2018-05-29T18:09:49.032Z,5.50
2018-05-29T18:12:15.760Z,4.90
2018-05-29T18:14:42.492Z,5.70
2018-05-29T18:17:09.236Z,5.10
2018-05-29T18:19:36.766Z,6.03
2018-05-29T18:22:03.528Z,6.10
2018-05-29T18:24:30.273Z,5.97
2018-05-29T18:26:56.999Z,6.77
2018-05-29T18:29:23.736Z,6.50
2018-05-29T18:31:50.479Z,6.57
2018-05-29T18:34:17.221Z,7.03
2018-05-29T18:36:43.947Z,7.40
2018-05-29T18:39:10.773Z,7.53
2018-05-29T18:41:37.561Z,6.20
2018-05-29T18:44:04.333Z,6.40
2018-05-29T18:46:31.063Z,7.50
2018-05-29T18:48:57.806Z,6.83
2018-05-29T18:51:24.552Z,6.50
2018-05-29T18:53:51.316Z,6.80
2018-05-29T18:56:18.040Z,7.07
2018-05-29T18:58:44.908Z,6.40
2018-05-29T19:01:11.656Z,7.20
2018-05-29T19:03:38.384Z,7.03
2018-05-29T19:06:05.154Z,6.83
2018-05-29T19:08:31.932Z,7.83
2018-05-29T19:10:58.695Z,6.70
2018-05-29T19:13:25.441Z,6.87
2018-05-29T19:15:52.410Z,7.83
2018-05-29T19:18:19.234Z,6.40
2018-05-29T19:20:45.945Z,7.47
2018-05-29T19:23:12.710Z,6.50
2018-05-29T19:25:39.447Z,7.10
2018-05-29T19:28:06.194Z,6.67
2018-05-29T19:30:32.949Z,6.20
2018-05-29T19:32:59.667Z,5.77
2018-05-29T19:35:26.404Z,6.10
2018-05-29T19:37:53.154Z,7.43
2018-05-29T19:40:19.875Z,6.10
2018-05-29T19:42:46.648Z,7.07
2018-05-29T19:45:13.396Z,7.40
2018-05-29T19:47:40.132Z,7.77
2018-05-29T19:50:06.908Z,7.90
2018-05-29T19:52:33.644Z,7.87
2018-05-29T19:55:00.368Z,8.37
2018-05-29T19:57:27.092Z,7.93
2018-05-29T19:59:53.827Z,9.27
2018-05-29T20:02:20.548Z,15.80
2018-05-29T20:04:47.327Z,14.60
2018-05-29T20:07:14.071Z,10.57
2018-05-29T20:09:40.803Z,9.27
2018-05-29T20:12:07.669Z,6.07
2018-05-29T20:14:34.479Z,5.30
2018-05-29T20:17:01.204Z,5.30
2018-05-29T20:19:27.970Z,5.20
2018-05-29T20:21:54.719Z,4.50
2018-05-29T20:24:21.529Z,4.37
2018-05-29T20:26:48.419Z,4.33
2018-05-29T20:29:15.148Z,4.67
2018-05-29T20:31:41.965Z,5.43
2018-05-29T20:34:08.688Z,4.40
2018-05-29T20:36:35.524Z,4.50
2018-05-29T20:39:02.256Z,10.17
2018-05-29T20:41:28.969Z,5.60
2018-05-29T20:43:55.746Z,7.93
2018-05-29T20:46:22.474Z,6.47
2018-05-29T20:48:49.216Z,6.00
2018-05-29T20:51:15.976Z,6.53
2018-05-29T20:53:42.768Z,6.13
2018-05-29T20:56:09.493Z,6.17
2018-05-29T20:58:36.230Z,7.47
2018-05-29T21:01:02.963Z,6.60
2018-05-29T21:03:29.777Z,6.90
2018-05-29T21:05:56.598Z,5.80
2018-05-29T21:08:23.321Z,6.17
2018-05-29T21:10:50.085Z,6.77
2018-05-29T21:13:16.825Z,6.77
2018-05-29T21:15:43.658Z,11.50
2018-05-29T21:18:10.380Z,7.30
2018-05-29T21:20:37.161Z,7.73
2018-05-29T21:23:03.951Z,7.67
2018-05-29T21:25:30.739Z,7.87
2018-05-29T21:27:57.563Z,7.90
2018-05-29T21:30:24.286Z,7.80
2018-05-29T21:32:51.063Z,7.10
2018-05-29T21:35:17.819Z,7.53
2018-05-29T21:37:44.543Z,8.20
2018-05-29T21:40:11.269Z,8.83
2018-05-29T21:42:38.003Z,6.67
2018-05-29T21:45:04.751Z,7.83
2018-05-29T21:47:31.497Z,7.00
2018-05-29T21:49:58.239Z,6.07
2018-05-29T21:52:24.961Z,6.67
2018-05-29T21:54:51.675Z,6.10
2018-05-29T21:57:18.429Z,6.13
2018-05-29T21:59:45.157Z,7.00
2018-05-29T22:02:11.933Z,6.57
2018-05-29T22:04:38.719Z,7.53
2018-05-29T22:07:05.437Z,7.00
2018-05-29T22:09:32.155Z,6.57
2018-05-29T22:11:58.900Z,6.57
2018-05-29T22:14:25.615Z,6.73
2018-05-29T22:16:52.360Z,5.90
2018-05-29T22:19:19.082Z,6.40
2018-05-29T22:21:45.804Z,5.90
2018-05-29T22:24:12.520Z,5.77
2018-05-29T22:26:39.251Z,6.37
2018-05-29T22:29:05.968Z,5.80
2018-05-29T22:31:32.688Z,6.17
2018-05-29T22:33:59.438Z,6.00
2018-05-29T22:36:27.076Z,5.83
2018-05-29T22:38:53.801Z,6.50
2018-05-29T22:41:20.537Z,5.97
2018-05-29T22:43:47.308Z,6.20
2018-05-29T22:46:14.046Z,7.30
2018-05-29T22:48:40.780Z,6.77
2018-05-29T22:51:07.504Z,6.20
2018-05-29T22:53:34.286Z,6.43
2018-05-29T22:56:01.016Z,6.70
2018-05-29T22:58:27.739Z,6.53
2018-05-29T23:00:54.460Z,6.60
2018-05-29T23:03:21.197Z,6.80
2018-05-29T23:05:47.921Z,7.00
2018-05-29T23:08:14.642Z,6.87
2018-05-29T23:10:41.373Z,7.20
2018-05-29T23:13:08.094Z,8.23
2018-05-29T23:15:34.815Z,7.97
2018-05-29T23:18:01.561Z,7.63
2018-05-29T23:20:28.290Z,6.73
2018-05-29T23:22:55.004Z,7.73
2018-05-29T23:25:21.748Z,7.10
2018-05-29T23:27:48.476Z,7.90
2018-05-29T23:30:15.187Z,8.37
2018-05-29T23:32:41.928Z,7.97
2018-05-29T23:35:08.658Z,8.43
2018-05-29T23:37:35.380Z,8.10
2018-05-29T23:40:02.108Z,8.93
2018-05-29T23:42:28.835Z,9.07
2018-05-29T23:44:55.560Z,9.17
2018-05-29T23:47:22.297Z,9.00
2018-05-29T23:49:49.022Z,9.87
2018-05-29T23:52:15.742Z,9.13
2018-05-29T23:54:42.475Z,7.73
2018-05-29T23:57:09.192Z,9.00
2018-05-29T23:59:35.911Z,8.33
